Raytown, Missouri
Current Conditions -  °F | °C
As of 1:19 AM on Friday 19 Dec 2014 (Local Time) from KLXT Reporting Station
Haze Haze  
Wind Chill: 31°   Ceiling: 300
Heat Index: 31°   Visibility: 5mi
Dew Point: 30°   Wind: 0mph
Humidity: 96%   Direction: NA
Pressure: 30.25"   Gusts: NA
Location:  39.01°N, 94.46°W
Report Text: KLXT 190719Z AUTO 00000KT 5SM BR OVC003 M01/M01 A3025 RMK AO2 T10061011 TSNO
Loading
Personal Weather Stations






























Interactive Weather Map New forecast layout! Learn more

10-Day Weather Forecast

Advertisements
Track Severe Weather on mobile